Time;durP1;ratioP1;P1;durP2;ratioP2;P2;SDS_P1;SDS_P2;PMS_P1;PMS_P2;Temp;Humidity;BMP_temperature;BMP_pressure;BME280_temperature;BME280_humidity;BME280_pressure;Samples;Min_cycle;Max_cycle;Signal;HPM_P1;HPM_P2
2021/12/15 00:00:58;;;;;;;22.38;12.13;;;3.50;83.80;;;;;;5057060;28;20401;-43
2021/12/15 00:03:25;;;;;;;27.00;13.32;;;3.50;83.80;;;;;;5057035;28;20029;-36
2021/12/15 00:05:51;;;;;;;20.60;11.45;;;3.50;83.90;;;;;;5057231;28;20100;-43
2021/12/15 00:08:17;;;;;;;23.60;12.38;;;3.50;84.00;;;;;;5057245;28;20434;-35
2021/12/15 00:10:44;;;;;;;26.00;12.45;;;3.50;83.90;;;;;;5057033;28;20376;-39
2021/12/15 00:13:13;;;;;;;25.30;11.98;;;3.40;84.10;;;;;;5055683;28;20369;-34
2021/12/15 00:15:39;;;;;;;20.55;10.73;;;3.50;84.10;;;;;;5056945;28;20055;-34
2021/12/15 00:18:05;;;;;;;23.42;12.35;;;3.40;84.20;;;;;;5056573;28;20029;-34
2021/12/15 00:20:31;;;;;;;22.58;11.38;;;3.40;84.40;;;;;;5056652;28;20040;-35
2021/12/15 00:22:58;;;;;;;25.65;12.25;;;3.50;84.50;;;;;;5057119;28;20302;-43
2021/12/15 00:25:28;;;;;;;19.27;10.32;;;3.40;84.50;;;;;;5056613;28;20033;-44
2021/12/15 00:27:54;;;;;;;20.10;11.35;;;3.40;84.70;;;;;;5056452;28;20029;-35
2021/12/15 00:30:20;;;;;;;18.10;10.10;;;3.40;84.60;;;;;;5056691;28;20028;-44
2021/12/15 00:32:47;;;;;;;23.45;11.15;;;3.40;84.50;;;;;;5056399;28;20028;-34
2021/12/15 00:35:13;;;;;;;19.00;10.45;;;3.30;84.40;;;;;;5056481;28;20317;-35
2021/12/15 00:37:38;;;;;;;20.83;10.13;;;3.30;84.80;;;;;;5056177;28;20025;-36
2021/12/15 00:40:09;;;;;;;17.80;9.48;;;3.30;84.90;;;;;;5056183;28;20024;-43
2021/12/15 00:42:35;;;;;;;19.88;10.20;;;3.30;84.80;;;;;;5056548;28;20414;-37
2021/12/15 00:45:01;;;;;;;18.83;9.38;;;3.30;84.60;;;;;;5056347;28;20036;-38
2021/12/15 00:47:27;;;;;;;18.90;10.60;;;3.20;84.90;;;;;;5056222;28;20068;-44
2021/12/15 00:49:53;;;;;;;23.33;12.27;;;3.20;85.30;;;;;;5056005;28;20448;-44
2021/12/15 00:52:18;;;;;;;23.00;11.73;;;3.30;85.50;;;;;;5056462;28;20029;-43
2021/12/15 00:54:44;;;;;;;29.48;14.73;;;3.20;85.30;;;;;;5055945;28;20045;-35
2021/12/15 00:57:10;;;;;;;21.52;11.80;;;3.20;85.40;;;;;;5056141;28;20055;-34
2021/12/15 00:59:36;;;;;;;20.08;10.40;;;3.20;85.60;;;;;;5055828;28;20037;-43
2021/12/15 01:02:03;;;;;;;19.25;9.88;;;3.20;85.60;;;;;;5055346;28;20025;-35
2021/12/15 01:04:30;;;;;;;23.63;11.40;;;3.20;85.70;;;;;;5055875;28;20029;-44
2021/12/15 01:07:00;;;;;;;18.15;10.77;;;3.20;85.60;;;;;;5055853;28;20032;-43
2021/12/15 01:09:31;;;;;;;21.77;11.52;;;3.20;85.90;;;;;;5055850;28;20431;-44
2021/12/15 01:12:21;;;;;;;25.45;11.77;;;3.10;86.30;;;;;;5055993;28;20032;-36
2021/12/15 01:20:31;;;;;;;18.73;10.95;;;3.20;86.50;;;;;;5056169;28;20083;-40
2021/12/15 01:22:59;;;;;;;17.20;9.07;;;3.20;86.40;;;;;;5055788;28;20036;-34
2021/12/15 01:25:33;;;;;;;14.30;9.13;;;3.20;86.30;;;;;;5055774;28;20025;-35
2021/12/15 01:27:59;;;;;;;17.45;9.10;;;3.20;86.00;;;;;;5055882;28;20112;-36
2021/12/15 01:30:30;;;;;;;15.02;8.43;;;3.20;86.10;;;;;;5055603;28;20322;-35
2021/12/15 01:32:58;;;;;;;16.75;9.63;;;3.20;86.30;;;;;;5055784;28;20329;-43
2021/12/15 01:35:25;;;;;;;17.23;8.95;;;3.20;86.00;;;;;;5055671;28;20040;-44
2021/12/15 01:37:52;;;;;;;17.00;9.27;;;3.20;86.00;;;;;;5055511;28;20059;-34
2021/12/15 01:40:30;;;;;;;18.67;8.85;;;3.20;86.00;;;;;;5055543;28;20033;-44
2021/12/15 01:42:56;;;;;;;17.80;9.10;;;3.20;86.00;;;;;;5055645;28;20064;-43
2021/12/15 01:48:11;;;;;;;16.20;9.15;;;3.20;86.20;;;;;;5055719;28;20035;-44
2021/12/15 01:50:37;;;;;;;16.50;9.05;;;3.20;86.30;;;;;;5055188;28;20091;-35
2021/12/15 01:53:05;;;;;;;15.20;8.48;;;3.20;86.20;;;;;;5055736;28;20401;-36
2021/12/15 01:55:31;;;;;;;15.00;8.27;;;3.20;86.30;;;;;;5055596;28;20045;-34
2021/12/15 01:57:57;;;;;;;14.32;7.63;;;3.20;86.30;;;;;;5055431;28;20055;-39
2021/12/15 02:00:30;;;;;;;16.55;8.75;;;3.20;86.10;;;;;;5055238;28;20612;-34
2021/12/15 02:02:57;;;;;;;14.15;8.30;;;3.20;86.10;;;;;;5055873;28;20040;-36
2021/12/15 02:05:25;;;;;;;14.05;8.25;;;3.20;86.30;;;;;;5055544;28;20037;-44
2021/12/15 02:07:50;;;;;;;15.65;8.68;;;3.20;86.40;;;;;;5055351;28;20033;-39
2021/12/15 02:10:20;;;;;;;16.98;8.73;;;3.20;86.40;;;;;;5055539;28;20393;-37
2021/12/15 02:12:46;;;;;;;15.02;8.20;;;3.20;86.30;;;;;;5055747;28;20025;-35
2021/12/15 02:15:29;;;;;;;17.17;8.57;;;3.20;86.50;;;;;;5058786;28;20041;-44
2021/12/15 02:17:55;;;;;;;15.88;8.48;;;3.30;86.70;;;;;;5059552;28;20031;-35
2021/12/15 02:20:36;;;;;;;16.00;8.50;;;3.30;86.70;;;;;;5058871;28;20033;-43
2021/12/15 02:23:04;;;;;;;;;;;3.30;86.60;;;;;;5059639;28;20078;-43
2021/12/15 02:25:29;;;;;;;17.00;8.55;;;3.30;86.30;;;;;;5058984;28;19913;-43
2021/12/15 02:27:55;;;;;;;14.20;8.07;;;3.20;86.30;;;;;;5059088;28;20146;-43
2021/12/15 02:30:44;;;;;;;16.15;8.50;;;3.20;86.30;;;;;;5058972;28;20048;-43
2021/12/15 02:38:35;;;;;;;19.70;10.25;;;3.20;86.50;;;;;;5058432;28;20036;-44
2021/12/15 02:41:08;;;;;;;;;;;3.20;86.60;;;;;;5059223;28;20329;-43
2021/12/15 02:43:35;;;;;;;23.98;11.10;;;3.20;86.40;;;;;;5058528;28;19909;-43
2021/12/15 02:46:02;;;;;;;16.65;9.27;;;3.10;86.70;;;;;;5058668;28;20404;-35
2021/12/15 02:48:28;;;;;;;18.45;9.18;;;3.10;86.80;;;;;;5058226;28;20100;-36
2021/12/15 02:50:54;;;;;;;16.25;9.30;;;3.10;87.10;;;;;;5058140;28;20419;-44
2021/12/15 02:53:20;;;;;;;23.52;10.75;;;3.10;87.20;;;;;;5058653;28;20479;-34
2021/12/15 02:55:46;;;;;;;27.77;12.27;;;3.10;87.20;;;;;;5058377;28;20082;-37
2021/12/15 02:58:12;;;;;;;24.20;11.68;;;3.10;87.20;;;;;;5058509;28;20025;-33
2021/12/15 03:01:05;;;;;;;22.73;11.18;;;3.10;87.30;;;;;;5058297;28;20029;-38
2021/12/15 03:04:00;;;;;;;19.92;10.45;;;3.10;87.50;;;;;;5057991;28;20029;-34
2021/12/15 03:06:32;;;;;;;22.50;11.35;;;3.10;87.60;;;;;;5058125;28;20087;-44
2021/12/15 03:16:57;;;;;;;16.40;9.07;;;3.10;87.70;;;;;;5058075;28;20032;-36
2021/12/15 03:19:25;;;;;;;17.67;9.63;;;3.10;87.70;;;;;;5057799;28;20104;-44
2021/12/15 03:21:51;;;;;;;21.63;10.55;;;3.10;87.80;;;;;;5057903;28;20025;-45
2021/12/15 03:24:19;;;;;;;18.58;9.77;;;3.10;88.00;;;;;;5057226;28;20117;-38
2021/12/15 03:26:58;;;;;;;18.92;10.40;;;3.10;88.10;;;;;;5057814;28;20021;-35
2021/12/15 03:37:26;;;;;;;15.63;8.32;;;3.10;87.90;;;;;;5057597;28;20413;-44
2021/12/15 03:40:00;;;;;;;14.90;8.45;;;3.10;88.00;;;;;;5057425;28;20032;-38
2021/12/15 03:42:34;;;;;;;16.17;9.25;;;3.10;88.00;;;;;;5057829;28;20409;-37
2021/12/15 03:45:01;;;;;;;11.88;6.95;;;3.10;88.10;;;;;;5057370;28;20033;-43
2021/12/15 03:47:30;;;;;;;16.17;7.72;;;3.10;88.20;;;;;;5057498;28;20333;-35
2021/12/15 03:49:58;;;;;;;15.40;7.50;;;3.10;88.20;;;;;;5057040;28;20045;-44
2021/12/15 03:52:25;;;;;;;12.63;7.95;;;3.10;88.20;;;;;;5057476;28;20299;-36
2021/12/15 03:54:50;;;;;;;17.20;8.23;;;3.10;88.30;;;;;;5057140;28;20041;-36
2021/12/15 03:57:17;;;;;;;17.80;8.65;;;3.10;88.40;;;;;;5056892;28;20033;-36
2021/12/15 03:59:44;;;;;;;15.23;7.60;;;3.10;88.40;;;;;;5056481;28;20040;-37
2021/12/15 04:02:16;;;;;;;16.00;8.35;;;3.10;88.40;;;;;;5057287;28;20117;-34
2021/12/15 04:04:43;;;;;;;15.85;8.75;;;3.10;88.40;;;;;;5057166;28;20033;-38
2021/12/15 04:07:10;;;;;;;15.43;8.27;;;3.20;88.60;;;;;;5056914;28;20051;-44
2021/12/15 04:09:36;;;;;;;15.13;8.52;;;3.20;88.70;;;;;;5056962;28;20405;-37
2021/12/15 04:12:03;;;;;;;16.73;9.00;;;3.20;88.80;;;;;;5057121;28;20431;-38
2021/12/15 04:14:41;;;;;;;14.52;7.82;;;3.20;88.70;;;;;;5056766;28;20047;-37
2021/12/15 04:17:17;;;;;;;13.13;7.97;;;3.30;88.80;;;;;;5056587;28;20110;-44
2021/12/15 04:19:43;;;;;;;12.35;7.93;;;3.30;88.70;;;;;;5056679;28;20037;-36
2021/12/15 04:22:10;;;;;;;15.30;8.35;;;3.30;88.50;;;;;;5056601;28;20030;-35
2021/12/15 04:24:36;;;;;;;16.40;8.48;;;3.30;88.50;;;;;;5056171;28;20064;-43
2021/12/15 04:27:02;;;;;;;15.80;7.72;;;3.30;88.20;;;;;;5056619;28;20056;-39
2021/12/15 04:29:29;;;;;;;15.90;8.13;;;3.30;88.00;;;;;;5056080;28;20037;-44
2021/12/15 04:32:04;;;;;;;14.90;8.00;;;3.30;87.80;;;;;;5056679;28;20431;-43
2021/12/15 04:34:30;;;;;;;15.70;8.05;;;3.30;87.80;;;;;;5056394;28;20043;-43
2021/12/15 04:36:56;;;;;;;15.30;8.85;;;3.30;88.00;;;;;;5056472;28;20032;-43
2021/12/15 04:39:25;;;;;;;13.82;7.63;;;3.30;87.90;;;;;;5056244;28;20290;-44
2021/12/15 04:41:53;;;;;;;13.27;7.97;;;3.30;87.80;;;;;;5056170;28;20033;-36
2021/12/15 04:44:22;;;;;;;13.88;8.07;;;3.30;87.80;;;;;;5056099;28;20036;-43
2021/12/15 04:46:59;;;;;;;16.15;8.68;;;3.30;87.60;;;;;;5056167;28;20033;-44
2021/12/15 04:49:28;;;;;;;16.83;8.23;;;3.30;87.70;;;;;;5055974;28;20457;-37
2021/12/15 04:51:54;;;;;;;17.35;10.00;;;3.30;88.00;;;;;;5056472;28;20044;-44
2021/12/15 04:54:20;;;;;;;18.65;9.35;;;3.30;88.30;;;;;;5056084;28;20040;-39
2021/12/15 04:56:47;;;;;;;19.13;10.25;;;3.40;88.20;;;;;;5055984;28;20104;-44
2021/12/15 04:59:14;;;;;;;17.67;10.07;;;3.40;88.10;;;;;;5056060;28;20041;-43
2021/12/15 05:01:40;;;;;;;18.45;9.38;;;3.40;88.10;;;;;;5056033;28;20029;-35
2021/12/15 05:04:05;;;;;;;16.92;9.85;;;3.40;88.10;;;;;;5055900;28;20068;-36
2021/12/15 05:06:31;;;;;;;14.77;8.70;;;3.40;88.10;;;;;;5055894;28;20036;-44
2021/12/15 05:08:57;;;;;;;16.65;9.10;;;3.40;88.10;;;;;;5055878;28;20032;-38
2021/12/15 05:11:23;;;;;;;16.02;8.90;;;3.40;87.80;;;;;;5056013;28;20029;-35
2021/12/15 05:13:49;;;;;;;14.18;8.30;;;3.40;87.80;;;;;;5055696;28;20036;-44
2021/12/15 05:16:16;;;;;;;16.83;10.18;;;3.40;87.90;;;;;;5056069;28;20051;-37
2021/12/15 05:18:43;;;;;;;13.88;8.57;;;3.40;87.80;;;;;;5055292;28;20033;-38
2021/12/15 05:21:10;;;;;;;14.50;8.55;;;3.40;87.80;;;;;;5056073;28;20239;-35
2021/12/15 05:23:36;;;;;;;17.25;9.15;;;3.50;87.70;;;;;;5055752;28;20067;-35
2021/12/15 05:26:03;;;;;;;16.50;9.55;;;3.40;87.60;;;;;;5055792;28;20049;-36
2021/12/15 05:28:28;;;;;;;17.73;9.23;;;3.40;87.60;;;;;;5055719;28;20368;-44
2021/12/15 05:30:56;;;;;;;17.70;8.80;;;3.40;87.70;;;;;;5055378;28;20036;-43
2021/12/15 05:33:23;;;;;;;16.65;9.32;;;3.40;87.60;;;;;;5055440;28;20112;-44
2021/12/15 05:35:49;;;;;;;25.08;14.00;;;3.40;87.50;;;;;;5055751;28;20067;-34
2021/12/15 05:38:17;;;;;;;21.50;11.43;;;3.40;87.70;;;;;;5055502;28;20067;-34
2021/12/15 05:40:43;;;;;;;19.40;10.32;;;3.40;88.00;;;;;;5049146;28;20414;-35
2021/12/15 05:43:09;;;;;;;19.80;10.40;;;3.40;87.80;;;;;;5044140;28;20025;-36
2021/12/15 05:45:39;;;;;;;19.35;10.20;;;3.40;87.60;;;;;;5035584;28;20065;-43
2021/12/15 05:48:07;;;;;;;22.42;12.27;;;3.40;87.50;;;;;;5036728;28;20056;-34
2021/12/15 05:50:34;;;;;;;21.75;11.15;;;3.40;87.60;;;;;;5038747;28;20083;-34
2021/12/15 05:53:01;;;;;;;22.98;12.40;;;3.30;87.40;;;;;;5039253;28;20057;-35
2021/12/15 05:55:27;;;;;;;17.40;10.70;;;3.30;87.50;;;;;;5039340;28;20044;-44
2021/12/15 05:57:53;;;;;;;24.73;12.25;;;3.30;87.60;;;;;;5038765;28;20171;-37
2021/12/15 06:00:25;;;;;;;20.27;11.50;;;3.30;87.70;;;;;;5038984;28;20136;-44
2021/12/15 06:02:52;;;;;;;23.50;10.95;;;3.30;87.70;;;;;;5039377;28;20034;-34
2021/12/15 06:05:18;;;;;;;20.55;10.77;;;3.20;87.80;;;;;;5038998;28;20076;-44
2021/12/15 06:07:44;;;;;;;22.23;10.80;;;3.20;88.00;;;;;;5038943;28;20053;-44
2021/12/15 06:10:15;;;;;;;19.75;11.10;;;3.30;88.00;;;;;;5039079;28;20049;-34
2021/12/15 06:12:42;;;;;;;21.17;11.25;;;3.30;88.10;;;;;;5039505;28;20036;-44
2021/12/15 06:15:09;;;;;;;18.92;10.75;;;3.30;88.10;;;;;;5039067;28;20286;-36
2021/12/15 06:17:34;;;;;;;21.48;11.82;;;3.30;88.00;;;;;;5038583;28;20105;-39
2021/12/15 06:20:00;;;;;;;19.45;10.43;;;3.30;88.00;;;;;;5038661;28;20069;-35
2021/12/15 06:22:28;;;;;;;18.80;11.05;;;3.40;87.90;;;;;;5038761;28;20022;-43
2021/12/15 06:24:56;;;;;;;19.42;10.15;;;3.40;87.70;;;;;;5038734;28;20342;-38
2021/12/15 06:27:24;;;;;;;19.65;10.55;;;3.40;87.60;;;;;;5038684;28;20037;-39
2021/12/15 06:29:52;;;;;;;19.42;10.02;;;3.40;87.60;;;;;;5038910;28;20038;-35
2021/12/15 06:32:19;;;;;;;22.38;11.23;;;3.40;87.20;;;;;;5038901;28;20330;-35
2021/12/15 06:34:45;;;;;;;23.65;10.88;;;3.40;86.90;;;;;;5038324;28;20106;-44
2021/12/15 06:37:12;;;;;;;22.83;11.75;;;3.30;87.00;;;;;;5038322;28;20079;-44
2021/12/15 06:39:39;;;;;;;21.17;11.13;;;3.40;87.30;;;;;;5038130;28;20029;-35
2021/12/15 06:42:05;;;;;;;18.58;9.68;;;3.30;87.20;;;;;;5038340;28;20029;-38
2021/12/15 06:44:31;;;;;;;20.00;10.07;;;3.40;87.20;;;;;;5037987;28;20033;-45
2021/12/15 07:00:41;;;;;;;23.30;11.60;;;3.40;87.70;;;;;;5037050;28;20033;-44
2021/12/15 07:03:07;;;;;;;24.45;11.60;;;3.40;87.60;;;;;;5038055;28;20029;-35
2021/12/15 07:05:33;;;;;;;17.17;9.50;;;3.40;87.50;;;;;;5037975;28;20029;-38
2021/12/15 07:08:00;;;;;;;20.05;9.90;;;3.40;87.30;;;;;;5037890;28;20082;-44
2021/12/15 07:10:29;;;;;;;21.20;9.98;;;3.50;87.20;;;;;;5037987;28;20045;-44
2021/12/15 07:12:56;;;;;;;21.27;10.52;;;3.50;87.20;;;;;;5037802;28;20036;-36
2021/12/15 07:15:22;;;;;;;19.63;10.57;;;3.50;87.30;;;;;;5037969;28;20033;-35
2021/12/15 07:17:51;;;;;;;23.73;11.07;;;3.50;87.20;;;;;;5038104;28;20417;-41
2021/12/15 07:22:55;;;;;;;21.23;10.38;;;3.50;86.90;;;;;;5038109;28;20087;-46
2021/12/15 07:25:22;;;;;;;21.10;10.40;;;3.50;86.80;;;;;;5037658;28;20032;-38
2021/12/15 07:27:48;;;;;;;22.52;10.95;;;3.50;86.90;;;;;;5037461;28;20448;-39
2021/12/15 07:30:15;;;;;;;20.70;10.68;;;3.50;87.10;;;;;;5037670;28;20040;-46
2021/12/15 07:32:42;;;;;;;21.75;10.52;;;3.50;87.30;;;;;;5037270;28;20045;-47
2021/12/15 07:35:11;;;;;;;22.42;11.40;;;3.50;87.30;;;;;;5037360;28;20033;-40
2021/12/15 07:37:37;;;;;;;21.77;10.10;;;3.50;87.40;;;;;;5037733;28;20042;-46
2021/12/15 07:40:11;;;;;;;18.27;9.38;;;3.50;87.30;;;;;;5036860;28;20087;-40
2021/12/15 07:42:54;;;;;;;19.88;10.00;;;3.60;87.30;;;;;;5037279;28;20034;-37
2021/12/15 07:45:22;;;;;;;15.15;7.78;;;3.60;87.20;;;;;;5035962;28;20033;-36
2021/12/15 07:47:50;;;;;;;12.73;7.68;;;3.60;87.20;;;;;;5037061;28;20041;-37
2021/12/15 07:50:17;;;;;;;14.13;7.22;;;3.60;87.30;;;;;;5035589;28;20062;-38
2021/12/15 07:52:43;;;;;;;11.68;6.57;;;3.60;87.30;;;;;;5037074;28;20029;-37
2021/12/15 07:55:09;;;;;;;12.95;6.47;;;3.60;86.90;;;;;;5037018;28;20045;-47
2021/12/15 07:57:37;;;;;;;10.88;6.13;;;3.60;86.90;;;;;;5036903;28;20132;-46
2021/12/15 08:00:03;;;;;;;11.63;6.40;;;3.60;86.60;;;;;;5036783;28;20052;-36
2021/12/15 08:02:29;;;;;;;14.02;6.90;;;3.60;86.50;;;;;;5036923;28;20322;-38
2021/12/15 08:04:55;;;;;;;13.77;7.05;;;3.60;86.50;;;;;;5036695;28;20121;-38
2021/12/15 08:07:20;;;;;;;13.52;7.00;;;3.60;86.50;;;;;;5036795;28;20377;-46
2021/12/15 08:09:49;;;;;;;15.18;7.68;;;3.60;86.30;;;;;;5036350;28;20055;-39
2021/12/15 08:12:15;;;;;;;16.38;7.72;;;3.60;86.60;;;;;;5036535;28;20307;-46
2021/12/15 08:14:40;;;;;;;17.50;8.60;;;3.60;86.60;;;;;;5036019;28;20049;-47
2021/12/15 08:17:06;;;;;;;15.43;7.47;;;3.60;86.70;;;;;;5036675;28;20329;-41
2021/12/15 08:19:32;;;;;;;13.73;8.35;;;3.60;86.70;;;;;;5036177;28;20358;-37
2021/12/15 08:21:58;;;;;;;15.77;7.45;;;3.60;86.60;;;;;;5036662;28;20416;-41
2021/12/15 08:24:24;;;;;;;17.13;9.07;;;3.70;86.80;;;;;;5035050;28;20056;-36
2021/12/15 08:26:50;;;;;;;16.52;8.75;;;3.60;86.90;;;;;;5036684;28;20449;-46
2021/12/15 08:29:15;;;;;;;17.27;8.63;;;3.70;86.90;;;;;;5035978;28;20034;-38
2021/12/15 08:31:42;;;;;;;24.23;10.48;;;3.70;86.80;;;;;;5035936;28;20040;-39
2021/12/15 08:34:08;;;;;;;22.58;11.32;;;3.70;86.80;;;;;;5035788;28;20129;-45
2021/12/15 08:36:35;;;;;;;20.98;11.23;;;3.70;86.70;;;;;;5036440;28;20025;-46
2021/12/15 08:39:01;;;;;;;28.08;13.20;;;3.70;87.10;;;;;;5035614;28;20045;-45
2021/12/15 08:41:28;;;;;;;24.20;12.45;;;3.70;86.70;;;;;;5035980;28;20033;-35
2021/12/15 08:43:55;;;;;;;25.52;13.25;;;3.80;86.80;;;;;;5035582;28;20144;-45
2021/12/15 08:46:31;;;;;;;24.02;12.77;;;3.70;86.70;;;;;;5035900;28;20436;-46
2021/12/15 08:48:58;;;;;;;25.92;12.95;;;3.80;86.40;;;;;;5038719;28;20098;-36
2021/12/15 08:51:26;;;;;;;29.17;13.63;;;3.70;86.50;;;;;;5055204;28;20484;-44
2021/12/15 08:53:57;;;;;;;27.38;13.55;;;3.80;86.50;;;;;;5044385;28;20063;-38
2021/12/15 08:56:23;;;;;;;31.55;14.30;;;3.80;86.40;;;;;;5035975;28;20033;-40
2021/12/15 08:58:49;;;;;;;31.25;13.77;;;3.70;85.80;;;;;;5035320;28;20041;-36
2021/12/15 09:01:15;;;;;;;29.40;15.10;;;3.70;85.60;;;;;;5035664;28;20052;-36
2021/12/15 09:03:42;;;;;;;28.65;14.75;;;3.70;85.80;;;;;;5035367;28;20108;-44
2021/12/15 09:06:10;;;;;;;29.92;14.55;;;3.70;85.80;;;;;;5035904;28;20036;-38
2021/12/15 09:08:36;;;;;;;31.80;15.25;;;3.70;86.00;;;;;;5035053;28;20372;-46
2021/12/15 09:11:08;;;;;;;31.20;14.10;;;3.70;86.20;;;;;;5035693;28;20029;-46
2021/12/15 09:13:34;;;;;;;28.10;14.18;;;3.70;86.30;;;;;;5035068;28;20120;-39
2021/12/15 09:16:05;;;;;;;34.20;15.45;;;3.70;86.30;;;;;;5035310;28;20029;-46
2021/12/15 09:18:31;;;;;;;29.90;14.40;;;3.70;86.40;;;;;;5035024;28;20517;-45
2021/12/15 09:20:58;;;;;;;25.27;13.10;;;3.80;86.30;;;;;;5035354;28;20219;-39
2021/12/15 09:23:24;;;;;;;39.13;17.50;;;3.80;86.00;;;;;;5034541;28;20026;-40
2021/12/15 09:25:49;;;;;;;42.70;18.02;;;3.80;85.80;;;;;;5035533;28;20037;-45
2021/12/15 09:28:19;;;;;;;42.30;18.20;;;3.80;85.60;;;;;;5035082;28;20025;-45
2021/12/15 09:30:46;;;;;;;46.55;18.27;;;3.80;85.30;;;;;;5035485;28;20045;-35
2021/12/15 09:33:18;;;;;;;46.65;20.10;;;3.80;85.00;;;;;;5035625;28;20079;-37
2021/12/15 09:35:45;;;;;;;40.92;18.33;;;3.70;85.10;;;;;;5034959;28;20193;-39
2021/12/15 09:38:13;;;;;;;43.53;18.35;;;3.70;85.20;;;;;;5035407;28;20045;-38
2021/12/15 09:40:40;;;;;;;40.30;18.20;;;3.70;85.30;;;;;;5035587;28;20037;-35
2021/12/15 09:43:06;;;;;;;42.20;18.52;;;3.70;85.30;;;;;;5035733;28;20045;-44
2021/12/15 09:56:23;;;;;;;39.85;17.38;;;3.70;85.10;;;;;;5042656;28;20041;-35
2021/12/15 10:04:50;;;;;;;43.10;18.05;;;3.60;85.60;;;;;;5048678;28;20044;-37
2021/12/15 10:21:29;;;;;;;39.05;16.65;;;3.70;86.10;;;;;;5037344;28;20362;-40
2021/12/15 10:23:56;;;;;;;43.08;17.73;;;3.70;85.90;;;;;;5034516;28;20096;-40
2021/12/15 10:26:23;;;;;;;47.38;17.30;;;3.70;85.50;;;;;;5035518;28;20365;-39
2021/12/15 10:28:52;;;;;;;46.25;17.02;;;3.70;85.20;;;;;;5034206;28;20417;-40
2021/12/15 10:31:21;;;;;;;42.45;18.75;;;3.70;84.90;;;;;;5034658;28;20088;-38
2021/12/15 10:33:53;;;;;;;41.63;17.38;;;3.70;84.90;;;;;;5034980;28;20410;-45
2021/12/15 10:36:29;;;;;;;43.90;17.17;;;3.70;85.10;;;;;;5038801;28;20036;-38
2021/12/15 10:39:02;;;;;;;37.70;16.67;;;3.70;85.00;;;;;;5038016;28;20380;-44
2021/12/15 10:41:32;;;;;;;42.15;17.55;;;3.70;84.90;;;;;;5038711;28;20029;-40
2021/12/15 10:44:13;;;;;;;33.30;15.90;;;3.70;85.30;;;;;;5038181;28;20037;-44
2021/12/15 10:46:41;;;;;;;40.22;16.05;;;3.70;84.80;;;;;;5038188;28;20437;-44
2021/12/15 10:49:11;;;;;;;39.38;17.38;;;3.70;84.70;;;;;;5037715;28;20061;-46
2021/12/15 10:51:37;;;;;;;36.47;16.90;;;3.70;85.00;;;;;;5037807;28;20504;-46
2021/12/15 10:54:07;;;;;;;37.00;16.75;;;3.70;84.90;;;;;;5037861;28;20417;-37
2021/12/15 10:56:36;;;;;;;41.13;16.80;;;3.70;85.00;;;;;;5038020;28;20030;-40
2021/12/15 10:59:11;;;;;;;47.90;19.83;;;3.70;85.00;;;;;;5037271;28;20038;-46
2021/12/15 11:01:45;;;;;;;56.20;22.55;;;3.70;84.90;;;;;;5037596;28;20034;-38
2021/12/15 11:04:23;;;;;;;61.92;23.80;;;3.70;85.10;;;;;;5037846;28;20042;-38
2021/12/15 11:07:10;;;;;;;64.40;24.00;;;3.70;85.00;;;;;;5037416;28;20025;-36
2021/12/15 11:09:39;;;;;;;62.80;23.17;;;3.70;85.20;;;;;;5045080;28;20055;-45
2021/12/15 11:12:08;;;;;;;58.97;22.13;;;3.70;85.60;;;;;;5040216;28;20326;-46
2021/12/15 11:14:40;;;;;;;62.78;23.25;;;3.70;85.50;;;;;;5037674;28;20037;-40
2021/12/15 11:17:09;;;;;;;57.55;22.40;;;3.70;85.50;;;;;;5037446;28;20091;-46
2021/12/15 11:19:48;;;;;;;48.75;20.63;;;3.70;85.30;;;;;;5037463;28;20033;-37
2021/12/15 11:22:35;;;;;;;57.03;21.30;;;3.70;85.40;;;;;;5037140;28;20032;-39
2021/12/15 11:25:08;;;;;;;57.88;20.73;;;3.70;85.20;;;;;;5037372;28;20069;-45
2021/12/15 11:27:34;;;;;;;53.25;21.05;;;3.70;85.20;;;;;;5037359;28;20373;-46
2021/12/15 11:30:00;;;;;;;51.20;19.85;;;3.70;85.50;;;;;;5037352;28;20140;-41
2021/12/15 11:32:48;;;;;;;45.85;20.08;;;3.70;85.30;;;;;;5037402;28;20038;-46
2021/12/15 11:35:19;;;;;;;59.47;20.75;;;3.70;85.10;;;;;;5037023;28;20410;-46
2021/12/15 11:37:51;;;;;;;55.80;21.33;;;3.60;84.80;;;;;;5037034;28;20048;-46
2021/12/15 11:40:36;;;;;;;53.67;20.80;;;3.60;84.80;;;;;;5037124;28;20295;-39
2021/12/15 11:43:03;;;;;;;49.65;20.90;;;3.50;85.00;;;;;;5036776;28;20021;-40
2021/12/15 11:45:30;;;;;;;54.20;19.85;;;3.50;85.10;;;;;;5036404;28;20030;-46
2021/12/15 11:48:18;;;;;;;49.72;21.10;;;3.50;85.40;;;;;;5036620;28;20033;-46
2021/12/15 11:50:46;;;;;;;45.95;18.10;;;3.50;85.60;;;;;;5036551;28;20107;-40
2021/12/15 11:53:29;;;;;;;46.75;19.48;;;3.40;85.50;;;;;;5036545;28;20033;-40
2021/12/15 11:56:27;;;;;;;48.53;19.42;;;3.40;85.70;;;;;;5036766;28;20037;-45
2021/12/15 11:59:14;;;;;;;45.28;18.58;;;3.50;85.70;;;;;;5036233;28;20041;-45
2021/12/15 12:01:54;;;;;;;44.47;18.10;;;3.40;85.70;;;;;;5036521;28;20053;-45
2021/12/15 12:04:25;;;;;;;46.25;18.85;;;3.40;85.50;;;;;;5036432;28;20402;-46
2021/12/15 12:07:19;;;;;;;49.92;19.88;;;3.40;85.50;;;;;;5036855;28;20037;-45
2021/12/15 12:09:50;;;;;;;48.88;20.20;;;3.40;85.70;;;;;;5029868;28;20041;-42
2021/12/15 12:12:17;;;;;;;42.80;18.13;;;3.40;85.90;;;;;;5036170;28;20060;-40
2021/12/15 12:14:50;;;;;;;43.65;17.75;;;3.40;85.70;;;;;;5036759;28;20033;-45
2021/12/15 12:17:22;;;;;;;47.38;18.58;;;3.40;85.90;;;;;;5036321;28;20041;-45
2021/12/15 12:19:55;;;;;;;43.85;18.35;;;3.50;85.80;;;;;;5036291;28;20021;-46
2021/12/15 12:22:23;;;;;;;41.53;19.58;;;3.50;85.80;;;;;;5035840;28;20037;-39
2021/12/15 12:24:52;;;;;;;43.83;20.13;;;3.50;85.70;;;;;;5035995;28;20358;-45
2021/12/15 12:27:20;;;;;;;39.95;17.65;;;3.60;85.70;;;;;;5036136;28;20116;-39
2021/12/15 12:29:46;;;;;;;42.35;18.35;;;3.60;85.60;;;;;;5036032;28;20472;-38
2021/12/15 12:32:12;;;;;;;39.42;17.73;;;3.60;85.30;;;;;;5035958;28;20117;-46
2021/12/15 12:34:40;;;;;;;35.75;17.10;;;3.60;85.20;;;;;;5035867;28;20116;-46
2021/12/15 12:37:07;;;;;;;40.25;18.60;;;3.70;85.20;;;;;;5035866;28;20037;-46
2021/12/15 12:39:35;;;;;;;44.95;19.40;;;3.70;85.10;;;;;;5035641;28;20025;-39
2021/12/15 12:42:01;;;;;;;41.00;17.40;;;3.70;84.90;;;;;;5035926;28;20357;-36
2021/12/15 12:44:38;;;;;;;41.17;17.92;;;3.70;84.90;;;;;;5035990;28;20033;-41
2021/12/15 12:47:18;;;;;;;40.17;17.33;;;3.80;84.70;;;;;;5035860;28;20333;-40
2021/12/15 12:50:16;;;;;;;42.15;17.70;;;3.70;84.40;;;;;;5035523;28;20053;-39
2021/12/15 13:01:08;;;;;;;35.88;17.17;;;3.80;84.40;;;;;;5035529;28;20507;-46
2021/12/15 13:03:38;;;;;;;41.22;17.38;;;3.80;84.30;;;;;;5035620;28;20049;-46
2021/12/15 13:06:07;;;;;;;40.00;16.85;;;3.80;84.20;;;;;;5035511;28;20029;-46
2021/12/15 13:09:07;;;;;;;40.28;17.52;;;3.80;84.30;;;;;;5035081;28;20065;-39
2021/12/15 13:11:36;;;;;;;37.60;17.25;;;3.80;84.10;;;;;;5035007;28;20037;-46
2021/12/15 13:14:13;;;;;;;37.90;17.10;;;3.80;84.10;;;;;;5035158;28;20116;-44
2021/12/15 13:16:53;;;;;;;34.08;15.82;;;3.80;83.90;;;;;;5035481;28;20061;-46
2021/12/15 13:19:24;;;;;;;35.63;16.48;;;3.80;83.60;;;;;;5035229;28;20441;-46
2021/12/15 13:22:40;;;;;;;;;;;3.80;83.50;;;;;;5035928;28;20373;-40
2021/12/15 13:30:40;;;;;;;38.17;14.95;;;3.70;83.80;;;;;;5035840;28;20076;-40
2021/12/15 13:33:13;;;;;;;35.97;16.17;;;3.70;83.90;;;;;;5035180;28;20067;-40
2021/12/15 13:35:47;;;;;;;34.15;14.77;;;3.70;84.00;;;;;;5035442;28;20030;-41
2021/12/15 13:38:17;;;;;;;36.53;14.48;;;3.70;84.00;;;;;;5035516;28;20034;-46
2021/12/15 13:41:07;;;;;;;30.58;14.25;;;3.70;83.90;;;;;;5035162;28;20029;-40
2021/12/15 13:43:47;;;;;;;35.40;14.70;;;3.70;83.90;;;;;;5034913;28;20040;-39
2021/12/15 13:46:28;;;;;;;43.85;16.88;;;3.70;83.60;;;;;;5035548;28;20082;-38
2021/12/15 13:49:08;;;;;;;35.58;15.35;;;3.70;83.30;;;;;;5034603;28;20430;-41
2021/12/15 13:51:55;;;;;;;34.70;16.02;;;3.70;83.40;;;;;;5034919;28;20057;-46
2021/12/15 13:54:46;;;;;;;40.47;15.00;;;3.60;83.30;;;;;;5034868;28;20286;-46
2021/12/15 13:57:11;;;;;;;;;;;3.60;83.00;;;;;;5034570;28;20112;-38
2021/12/15 13:59:45;;;;;;;33.08;13.57;;;3.60;82.90;;;;;;5034764;28;20001;-40
2021/12/15 14:02:26;;;;;;;35.22;13.38;;;3.50;82.60;;;;;;5034836;28;20072;-39
2021/12/15 14:05:03;;;;;;;32.60;12.98;;;3.50;82.60;;;;;;5034906;28;20033;-44
2021/12/15 14:07:32;;;;;;;35.00;14.43;;;3.50;82.70;;;;;;5034988;28;20033;-45
2021/12/15 14:10:02;;;;;;;28.40;12.60;;;3.40;82.60;;;;;;5048777;28;20037;-40
2021/12/15 14:12:46;;;;;;;33.87;14.37;;;3.40;82.40;;;;;;5038684;28;20057;-44
2021/12/15 14:15:35;;;;;;;34.72;13.95;;;3.50;82.50;;;;;;5038731;28;20083;-45
2021/12/15 14:18:21;;;;;;;29.13;12.63;;;3.40;82.30;;;;;;5037965;28;20041;-40
2021/12/15 14:21:10;;;;;;;30.75;13.05;;;3.40;82.20;;;;;;5038272;28;20071;-41
2021/12/15 14:23:37;;;;;;;31.58;12.60;;;3.40;82.30;;;;;;5038095;28;20326;-39
2021/12/15 14:26:08;;;;;;;31.60;12.52;;;3.30;82.30;;;;;;5037867;28;20033;-39